createdAt,value
2019-05-16T00:01:30.044Z,13.10
2019-05-16T00:03:59.327Z,13.10
2019-05-16T00:06:28.779Z,13.10
2019-05-16T00:08:58.557Z,13.10
2019-05-16T00:11:28.197Z,13.10
2019-05-16T00:13:57.931Z,13.10
2019-05-16T00:16:28.796Z,13.10
2019-05-16T00:18:58.426Z,13.10
2019-05-16T00:21:28.228Z,13.10
2019-05-16T00:23:58.658Z,13.10
2019-05-16T00:26:28.305Z,13.10
2019-05-16T00:28:58.923Z,13.10
2019-05-16T00:31:28.702Z,13.10
2019-05-16T00:33:58.451Z,13.10
2019-05-16T00:36:27.942Z,13.20
2019-05-16T00:38:57.834Z,13.10
2019-05-16T00:41:28.325Z,13.20
2019-05-16T00:43:57.894Z,13.20
2019-05-16T00:46:27.947Z,13.20
2019-05-16T00:48:58.955Z,13.20
2019-05-16T00:51:28.834Z,13.20
2019-05-16T00:53:58.801Z,13.20
2019-05-16T00:56:29.678Z,13.20
2019-05-16T00:59:00.886Z,13.20
2019-05-16T01:01:30.358Z,13.20
2019-05-16T01:03:59.702Z,13.20
2019-05-16T01:06:29.180Z,13.20
2019-05-16T01:08:58.609Z,13.20
2019-05-16T01:11:28.066Z,13.20
2019-05-16T01:13:57.880Z,13.20
2019-05-16T01:16:27.724Z,13.20
2019-05-16T01:18:58.991Z,13.20
2019-05-16T01:21:28.798Z,13.20
2019-05-16T01:23:58.613Z,13.20
2019-05-16T01:26:28.594Z,13.20
2019-05-16T01:28:58.237Z,13.20
2019-05-16T01:31:28.022Z,13.20
2019-05-16T01:33:58.337Z,13.20
2019-05-16T01:36:36.811Z,13.20
2019-05-16T01:38:59.304Z,13.20
2019-05-16T01:41:28.786Z,13.20
2019-05-16T01:43:58.548Z,13.20
2019-05-16T01:46:28.575Z,13.20
2019-05-16T01:48:58.207Z,13.20
2019-05-16T01:51:28.816Z,13.20
2019-05-16T01:53:58.489Z,13.20
2019-05-16T01:56:28.162Z,13.30
2019-05-16T01:58:58.263Z,13.20
2019-05-16T02:01:28.831Z,13.20
2019-05-16T02:03:58.748Z,13.20
2019-05-16T02:06:28.797Z,13.30
2019-05-16T02:08:58.361Z,13.20
2019-05-16T02:11:28.516Z,13.20
2019-05-16T02:13:58.567Z,13.30
2019-05-16T02:16:28.230Z,13.30
2019-05-16T02:18:58.846Z,13.30
2019-05-16T02:21:28.707Z,13.20
2019-05-16T02:23:58.701Z,13.30
2019-05-16T02:26:29.366Z,13.30
2019-05-16T02:29:00.856Z,13.20
2019-05-16T02:31:31.376Z,13.30
2019-05-16T02:34:04.509Z,13.30
2019-05-16T02:36:32.383Z,13.30
2019-05-16T02:39:02.180Z,13.30
2019-05-16T02:41:31.735Z,13.20
2019-05-16T02:44:01.431Z,13.20
2019-05-16T02:46:31.051Z,13.30
2019-05-16T02:49:01.018Z,13.30
2019-05-16T02:51:31.507Z,13.20
2019-05-16T02:54:01.471Z,13.30
2019-05-16T02:56:31.719Z,13.20
2019-05-16T02:59:01.817Z,13.30
2019-05-16T03:01:31.831Z,13.30
2019-05-16T03:04:01.854Z,13.30
2019-05-16T03:06:32.432Z,13.30
2019-05-16T03:09:05.265Z,13.30
2019-05-16T03:11:36.035Z,13.30
2019-05-16T03:14:06.269Z,13.30
2019-05-16T03:16:41.820Z,13.30
2019-05-16T03:19:13.438Z,13.30
2019-05-16T03:21:44.326Z,13.30
2019-05-16T03:24:13.885Z,13.40
2019-05-16T03:26:43.229Z,13.40
2019-05-16T03:29:12.855Z,13.40
2019-05-16T03:31:44.435Z,13.40
2019-05-16T03:34:16.441Z,13.40
2019-05-16T03:36:44.743Z,13.40
2019-05-16T03:39:14.195Z,13.40
2019-05-16T03:41:43.545Z,13.40
2019-05-16T03:44:13.036Z,13.40
2019-05-16T03:46:42.497Z,13.40
2019-05-16T03:49:12.003Z,13.40
2019-05-16T03:51:41.792Z,13.40
2019-05-16T03:54:12.462Z,13.40
2019-05-16T03:56:42.203Z,13.40
2019-05-16T03:59:11.674Z,13.40
2019-05-16T04:01:41.268Z,13.50
2019-05-16T04:04:12.088Z,13.50
2019-05-16T04:06:41.898Z,13.50
2019-05-16T04:09:12.444Z,13.50
2019-05-16T04:11:42.971Z,13.50
2019-05-16T04:14:12.753Z,13.50
2019-05-16T04:16:42.264Z,13.60
2019-05-16T04:19:11.867Z,13.60
2019-05-16T04:21:42.338Z,13.60
2019-05-16T04:24:12.600Z,13.60
2019-05-16T04:26:42.369Z,13.60
2019-05-16T04:29:12.219Z,13.60
2019-05-16T04:31:41.965Z,13.60
2019-05-16T04:34:12.006Z,13.60
2019-05-16T04:36:41.646Z,13.60
2019-05-16T04:39:12.167Z,13.60
2019-05-16T04:41:41.816Z,13.70
2019-05-16T04:44:11.919Z,13.70
2019-05-16T04:46:41.709Z,13.70
2019-05-16T04:49:11.528Z,13.80
2019-05-16T04:51:41.700Z,13.80
2019-05-16T04:54:11.742Z,13.80
2019-05-16T04:56:41.472Z,13.80
2019-05-16T04:59:16.206Z,13.80
2019-05-16T05:01:42.456Z,13.80
2019-05-16T05:04:15.511Z,13.80
2019-05-16T05:06:43.127Z,13.80
2019-05-16T05:09:12.558Z,13.80
2019-05-16T05:11:42.064Z,13.80
2019-05-16T05:14:11.518Z,13.80
2019-05-16T05:16:41.519Z,13.80
2019-05-16T05:19:11.259Z,13.80
2019-05-16T05:21:41.232Z,13.80
2019-05-16T05:24:11.082Z,13.80
2019-05-16T05:26:41.601Z,13.80
2019-05-16T05:29:11.341Z,13.90
2019-05-16T05:31:44.804Z,13.90
2019-05-16T05:34:11.897Z,13.90
2019-05-16T05:36:41.314Z,13.90
2019-05-16T05:39:15.253Z,13.90
2019-05-16T05:41:41.994Z,13.90
2019-05-16T05:44:11.546Z,13.90
2019-05-16T05:46:40.979Z,13.90
2019-05-16T05:49:10.700Z,13.90
2019-05-16T05:51:40.739Z,14.00
2019-05-16T05:54:10.912Z,13.90
2019-05-16T05:56:40.645Z,14.00
2019-05-16T05:59:11.470Z,14.00
2019-05-16T06:01:42.258Z,14.00
2019-05-16T06:04:11.695Z,14.10
2019-05-16T06:06:44.847Z,14.10
2019-05-16T06:09:25.231Z,14.20
2019-05-16T06:11:44.162Z,14.20
2019-05-16T06:14:13.617Z,14.20
2019-05-16T06:16:43.079Z,14.30
2019-05-16T06:19:12.517Z,14.30
2019-05-16T06:21:44.392Z,14.30
2019-05-16T06:24:16.086Z,14.30
2019-05-16T06:26:44.457Z,14.30
2019-05-16T06:29:13.922Z,14.30
2019-05-16T06:31:43.299Z,14.40
2019-05-16T06:34:15.192Z,14.50
2019-05-16T06:36:44.078Z,14.50
2019-05-16T06:39:13.755Z,14.50
2019-05-16T06:41:43.177Z,14.60
2019-05-16T06:44:12.643Z,15.00
2019-05-16T06:46:56.739Z,14.90
2019-05-16T06:49:13.270Z,14.90
2019-05-16T06:51:42.670Z,15.00
2019-05-16T06:54:12.016Z,15.00
2019-05-16T06:56:41.516Z,15.10
2019-05-16T06:59:11.117Z,15.10
2019-05-16T07:01:40.625Z,15.10
2019-05-16T07:04:10.600Z,15.20
2019-05-16T07:06:54.662Z,15.20
2019-05-16T07:09:11.759Z,15.20
2019-05-16T07:11:41.136Z,15.20
2019-05-16T07:14:10.822Z,15.20
2019-05-16T07:16:40.583Z,15.30
2019-05-16T07:19:10.687Z,15.30
2019-05-16T07:21:40.308Z,15.30
2019-05-16T07:24:10.966Z,15.30
2019-05-16T07:26:40.768Z,15.30
2019-05-16T07:29:10.989Z,15.20
2019-05-16T07:31:40.849Z,15.10
2019-05-16T07:34:13.989Z,15.00
2019-05-16T07:36:41.623Z,14.90
2019-05-16T07:39:11.165Z,14.90
2019-05-16T07:41:40.608Z,14.80
2019-05-16T07:44:10.760Z,14.80
2019-05-16T07:46:44.511Z,14.80
2019-05-16T07:49:11.777Z,14.80
2019-05-16T07:51:41.377Z,14.90
2019-05-16T07:54:10.827Z,15.00
2019-05-16T07:56:40.829Z,15.10
2019-05-16T07:59:10.615Z,15.10
2019-05-16T08:01:42.941Z,15.20
2019-05-16T08:04:11.374Z,15.30
2019-05-16T08:06:41.666Z,15.30
2019-05-16T08:09:12.730Z,15.50
2019-05-16T08:11:42.402Z,15.50
2019-05-16T08:14:11.979Z,15.90
2019-05-16T08:16:41.450Z,16.10
2019-05-16T08:19:10.878Z,16.10
2019-05-16T08:21:41.059Z,16.30
2019-05-16T08:24:15.139Z,16.50
2019-05-16T08:26:43.269Z,16.70
2019-05-16T08:29:13.698Z,17.10
2019-05-16T08:31:43.430Z,17.20
2019-05-16T08:34:12.967Z,17.20
2019-05-16T08:36:42.455Z,17.40
2019-05-16T08:39:11.886Z,17.80
2019-05-16T08:41:42.402Z,17.90
2019-05-16T08:44:12.620Z,18.00
2019-05-16T08:46:42.727Z,18.10
2019-05-16T08:49:12.566Z,18.20
2019-05-16T08:51:42.789Z,18.40
2019-05-16T08:54:13.614Z,18.40
2019-05-16T08:56:44.552Z,18.60
2019-05-16T08:59:14.309Z,18.70
2019-05-16T09:01:52.386Z,18.80
2019-05-16T09:04:14.927Z,18.80
2019-05-16T09:06:44.378Z,18.80
2019-05-16T09:09:29.670Z,18.90
2019-05-16T09:11:48.436Z,18.80
2019-05-16T09:14:17.205Z,18.70
2019-05-16T09:16:47.748Z,18.80
2019-05-16T09:19:17.545Z,18.90
2019-05-16T09:21:47.596Z,19.00
2019-05-16T09:24:18.043Z,19.20
2019-05-16T09:26:47.952Z,19.50
2019-05-16T09:29:17.348Z,19.60
2019-05-16T09:32:07.368Z,20.00
2019-05-16T09:34:17.821Z,20.00
2019-05-16T09:36:48.122Z,19.90
2019-05-16T09:39:17.873Z,19.80
2019-05-16T09:41:54.588Z,19.80
2019-05-16T09:44:18.674Z,19.50
2019-05-16T09:46:48.269Z,19.20
2019-05-16T09:49:24.399Z,18.90
2019-05-16T09:51:48.904Z,18.70
2019-05-16T09:54:18.375Z,18.50
2019-05-16T09:56:47.878Z,18.20
2019-05-16T09:59:17.477Z,18.00
2019-05-16T10:01:47.819Z,17.80
2019-05-16T10:04:17.746Z,17.70
2019-05-16T10:06:47.402Z,17.50
2019-05-16T10:09:17.485Z,17.30
2019-05-16T10:11:50.941Z,17.20
2019-05-16T10:14:18.443Z,17.10
2019-05-16T10:16:48.012Z,17.30
2019-05-16T10:19:17.442Z,17.00
2019-05-16T10:21:46.866Z,16.80
2019-05-16T10:24:16.574Z,16.50
2019-05-16T10:26:47.255Z,16.50
2019-05-16T10:29:18.266Z,16.40
2019-05-16T10:31:52.829Z,16.40
2019-05-16T10:34:19.347Z,16.20
2019-05-16T10:36:48.724Z,15.70
2019-05-16T10:39:18.194Z,15.50
2019-05-16T10:41:47.635Z,15.30
2019-05-16T10:44:17.661Z,15.20
2019-05-16T10:46:47.911Z,15.20
2019-05-16T10:49:31.731Z,15.10
2019-05-16T10:51:48.895Z,15.10
2019-05-16T10:54:18.852Z,15.10
2019-05-16T10:56:48.829Z,14.90
2019-05-16T11:01:49.400Z,14.60
2019-05-16T11:04:29.208Z,14.50
2019-05-16T11:06:59.899Z,14.40
2019-05-16T11:09:29.291Z,14.30
2019-05-16T11:11:58.643Z,14.30
2019-05-16T11:14:28.322Z,14.30
2019-05-16T11:16:58.176Z,14.40
2019-05-16T11:19:28.383Z,14.40
2019-05-16T11:21:58.035Z,14.40
2019-05-16T11:24:29.337Z,14.50
2019-05-16T11:26:58.594Z,14.40
2019-05-16T11:29:28.046Z,14.40
2019-05-16T11:31:57.515Z,14.60
2019-05-16T11:34:26.958Z,14.40
2019-05-16T11:36:57.037Z,14.30
2019-05-16T11:39:26.602Z,14.20
2019-05-16T11:41:57.122Z,14.10
2019-05-16T11:44:28.569Z,14.00
2019-05-16T11:46:57.944Z,14.10
2019-05-16T11:49:27.708Z,14.10
2019-05-16T11:51:57.915Z,14.10
2019-05-16T11:54:27.453Z,14.10
2019-05-16T11:56:57.103Z,14.20
2019-05-16T11:59:26.591Z,14.30
2019-05-16T12:01:56.192Z,14.40
2019-05-16T12:04:27.976Z,14.60
2019-05-16T12:06:57.423Z,14.70
2019-05-16T12:09:33.698Z,14.60
2019-05-16T12:12:03.773Z,14.60
2019-05-16T12:14:29.314Z,14.50
2019-05-16T12:16:58.666Z,14.70
2019-05-16T12:19:34.761Z,14.80
2019-05-16T12:21:59.583Z,14.90
2019-05-16T12:24:36.333Z,15.00
2019-05-16T12:27:00.753Z,14.90
2019-05-16T12:29:30.284Z,14.90
2019-05-16T12:32:02.915Z,15.00
2019-05-16T12:34:30.990Z,15.10
2019-05-16T12:37:00.493Z,15.00
2019-05-16T12:39:29.847Z,14.90
2019-05-16T12:42:00.121Z,15.00
2019-05-16T12:44:29.772Z,15.00
2019-05-16T12:46:59.170Z,15.20
2019-05-16T12:49:28.994Z,15.20
2019-05-16T12:51:58.384Z,15.20
2019-05-16T12:54:27.859Z,15.30
2019-05-16T12:56:58.028Z,15.30
2019-05-16T12:59:27.693Z,15.30
2019-05-16T13:01:57.783Z,15.30
2019-05-16T13:04:28.128Z,15.30
2019-05-16T13:06:57.984Z,15.40
2019-05-16T13:09:27.580Z,15.50
2019-05-16T13:11:57.719Z,15.50
2019-05-16T13:14:27.933Z,15.50
2019-05-16T13:16:57.515Z,15.60
2019-05-16T13:19:33.353Z,15.50
2019-05-16T13:21:58.426Z,15.60
2019-05-16T13:24:28.054Z,15.70
2019-05-16T13:26:57.727Z,15.80
2019-05-16T13:29:27.599Z,15.80
2019-05-16T13:31:57.255Z,15.80
2019-05-16T13:34:28.055Z,15.80
2019-05-16T13:36:58.124Z,15.80
2019-05-16T13:39:27.737Z,15.80
2019-05-16T13:41:57.232Z,15.90
2019-05-16T13:44:27.518Z,15.80
2019-05-16T13:46:57.099Z,15.90
2019-05-16T13:49:26.887Z,15.90
2019-05-16T13:51:56.355Z,16.00
2019-05-16T13:54:26.964Z,16.00
2019-05-16T13:56:57.209Z,16.10
2019-05-16T13:59:28.043Z,16.10
2019-05-16T14:01:57.618Z,16.10
2019-05-16T14:04:27.049Z,16.10
2019-05-16T14:06:58.799Z,16.10
2019-05-16T14:09:27.599Z,16.10
2019-05-16T14:11:56.969Z,16.10
2019-05-16T14:14:37.247Z,16.00
2019-05-16T14:16:57.602Z,15.90
2019-05-16T14:19:27.433Z,15.90
2019-05-16T14:21:57.177Z,15.90
2019-05-16T14:24:28.163Z,16.10
2019-05-16T14:26:57.938Z,16.10
2019-05-16T14:29:27.967Z,16.20
2019-05-16T14:31:57.643Z,16.30
2019-05-16T14:34:27.868Z,16.30
2019-05-16T14:36:57.949Z,16.20
2019-05-16T14:39:28.389Z,16.20
2019-05-16T14:41:58.247Z,16.20
2019-05-16T14:44:28.681Z,16.10
2019-05-16T14:46:58.475Z,16.20
2019-05-16T14:49:28.938Z,16.20
2019-05-16T14:51:58.938Z,16.10
2019-05-16T14:54:28.405Z,16.10
2019-05-16T14:57:00.810Z,16.00
2019-05-16T14:59:30.750Z,16.10
2019-05-16T15:02:00.217Z,16.00
2019-05-16T15:04:30.250Z,16.10
2019-05-16T15:07:00.006Z,16.20
2019-05-16T15:09:29.473Z,16.20
2019-05-16T15:11:59.078Z,16.30
2019-05-16T15:14:28.475Z,16.40
2019-05-16T15:16:58.059Z,16.40
2019-05-16T15:19:27.627Z,16.60
2019-05-16T15:21:57.221Z,16.70
2019-05-16T15:24:26.968Z,16.70
2019-05-16T15:26:57.797Z,16.40
2019-05-16T15:29:27.611Z,16.60
2019-05-16T15:31:57.413Z,17.30
2019-05-16T15:34:29.778Z,17.80
2019-05-16T15:37:00.096Z,18.30
2019-05-16T15:39:29.413Z,18.50
2019-05-16T15:41:58.871Z,19.00
2019-05-16T15:44:28.394Z,19.60
2019-05-16T15:46:59.958Z,19.20
2019-05-16T15:49:28.994Z,18.60
2019-05-16T15:51:59.034Z,18.90
2019-05-16T15:54:29.686Z,19.00
2019-05-16T15:56:59.069Z,20.00
2019-05-16T15:59:28.541Z,20.90
2019-05-16T16:01:58.897Z,20.80
2019-05-16T16:04:28.484Z,20.40
2019-05-16T16:06:57.898Z,21.20
2019-05-16T16:09:27.357Z,22.20
2019-05-16T16:11:56.911Z,22.30
2019-05-16T16:14:27.473Z,22.70
2019-05-16T16:16:57.155Z,22.80
2019-05-16T16:19:26.705Z,22.50
2019-05-16T16:21:57.852Z,23.00
2019-05-16T16:24:28.012Z,23.10
2019-05-16T16:26:57.660Z,23.10
2019-05-16T16:29:27.325Z,23.20
2019-05-16T16:31:57.000Z,23.90
2019-05-16T16:34:26.869Z,23.60
2019-05-16T16:36:56.928Z,23.60
2019-05-16T16:39:26.870Z,23.50
2019-05-16T16:41:56.893Z,22.90
2019-05-16T16:44:29.756Z,24.00
2019-05-16T16:46:59.184Z,23.90
2019-05-16T16:49:28.735Z,23.60
2019-05-16T16:51:58.215Z,23.40
2019-05-16T16:54:27.693Z,23.20
2019-05-16T16:56:57.192Z,22.70
2019-05-16T16:59:28.060Z,21.80
2019-05-16T17:01:57.886Z,21.20
2019-05-16T17:04:27.524Z,20.80
2019-05-16T17:06:57.078Z,20.80
2019-05-16T17:09:27.070Z,20.40
2019-05-16T17:11:57.123Z,20.00
2019-05-16T17:14:26.687Z,19.80
2019-05-16T17:16:57.536Z,19.40
2019-05-16T17:19:27.213Z,19.10
2019-05-16T17:22:11.875Z,18.90
2019-05-16T17:24:27.955Z,18.60
2019-05-16T17:26:57.870Z,18.60
2019-05-16T17:29:27.855Z,18.20
2019-05-16T17:32:06.057Z,18.00
2019-05-16T17:34:29.741Z,17.70
2019-05-16T17:36:59.149Z,17.60
2019-05-16T17:39:29.436Z,17.40
2019-05-16T17:41:58.871Z,17.40
2019-05-16T17:44:28.299Z,17.10
2019-05-16T17:46:57.798Z,16.90
2019-05-16T17:49:27.316Z,16.70
2019-05-16T17:51:56.798Z,16.60
2019-05-16T17:54:26.830Z,16.50
2019-05-16T17:56:57.919Z,16.30
2019-05-16T17:59:27.720Z,16.20
2019-05-16T18:01:57.275Z,16.10
2019-05-16T18:04:26.770Z,16.00
2019-05-16T18:06:57.682Z,16.00
2019-05-16T18:09:27.805Z,16.00
2019-05-16T18:11:57.584Z,15.90
2019-05-16T18:14:27.158Z,15.80
2019-05-16T18:16:59.629Z,15.80
2019-05-16T18:19:28.093Z,15.80
2019-05-16T18:21:57.451Z,15.70
2019-05-16T18:24:27.524Z,15.80
2019-05-16T18:26:57.203Z,15.70
2019-05-16T18:29:27.013Z,15.70
2019-05-16T18:31:56.551Z,15.60
2019-05-16T18:34:28.015Z,15.60
2019-05-16T18:36:57.301Z,15.50
2019-05-16T18:39:27.215Z,15.40
2019-05-16T18:41:56.893Z,15.40
2019-05-16T18:44:27.248Z,15.30
2019-05-16T18:47:06.637Z,15.30
2019-05-16T18:49:27.982Z,15.30
2019-05-16T18:51:57.502Z,15.20
2019-05-16T18:54:27.029Z,15.20
2019-05-16T18:56:57.835Z,15.20
2019-05-16T18:59:27.401Z,15.20
2019-05-16T19:01:56.790Z,15.10
2019-05-16T19:04:28.770Z,15.10
2019-05-16T19:06:59.638Z,15.10
2019-05-16T19:09:29.328Z,15.10
2019-05-16T19:11:59.165Z,15.10
2019-05-16T19:14:28.706Z,15.10
2019-05-16T19:16:58.467Z,15.10
2019-05-16T19:19:28.294Z,15.00
2019-05-16T19:21:59.556Z,15.00
2019-05-16T19:24:29.584Z,15.00
2019-05-16T19:26:59.181Z,15.00
2019-05-16T19:29:28.645Z,14.90
2019-05-16T19:31:58.378Z,14.90
2019-05-16T19:34:27.848Z,14.80
2019-05-16T19:36:57.622Z,14.80
2019-05-16T19:39:28.760Z,14.70
2019-05-16T19:42:10.539Z,14.70
2019-05-16T19:44:40.263Z,14.50
2019-05-16T19:47:09.780Z,14.50
2019-05-16T19:49:39.181Z,14.40
2019-05-16T19:52:08.826Z,14.40
2019-05-16T19:54:38.391Z,14.40
2019-05-16T19:57:07.972Z,14.40
2019-05-16T19:59:37.503Z,14.40
2019-05-16T20:02:07.725Z,14.40
2019-05-16T20:04:37.346Z,14.40
2019-05-16T20:07:07.562Z,14.30
2019-05-16T20:09:38.652Z,14.30
2019-05-16T20:12:08.227Z,14.30
2019-05-16T20:14:37.904Z,14.30
2019-05-16T20:17:07.532Z,14.30
2019-05-16T20:19:37.027Z,14.30
2019-05-16T20:22:07.651Z,14.20
2019-05-16T20:24:37.392Z,14.30
2019-05-16T20:27:08.077Z,14.30
2019-05-16T20:29:37.781Z,14.20
2019-05-16T20:32:07.797Z,14.20
2019-05-16T20:34:38.513Z,14.20
2019-05-16T20:37:09.292Z,14.20
2019-05-16T20:39:38.989Z,14.10
2019-05-16T20:42:08.558Z,14.20
2019-05-16T20:44:38.353Z,14.20
2019-05-16T20:47:07.913Z,14.20
2019-05-16T20:49:37.537Z,14.20
2019-05-16T20:52:07.203Z,14.30
2019-05-16T20:54:37.706Z,14.20
2019-05-16T20:57:07.487Z,14.20
2019-05-16T20:59:37.109Z,14.30
2019-05-16T21:02:07.055Z,14.20
2019-05-16T21:04:37.460Z,14.20
2019-05-16T21:07:10.741Z,14.20
2019-05-16T21:09:38.221Z,14.20
2019-05-16T21:12:08.282Z,14.20
2019-05-16T21:14:37.940Z,14.20
2019-05-16T21:17:07.303Z,14.20
2019-05-16T21:19:39.200Z,14.20
2019-05-16T21:22:07.948Z,14.20
2019-05-16T21:24:37.518Z,14.20
2019-05-16T21:27:07.057Z,14.20
2019-05-16T21:29:36.966Z,14.20
2019-05-16T21:32:07.455Z,14.20
2019-05-16T21:34:37.058Z,14.20
2019-05-16T21:37:14.616Z,14.20
2019-05-16T21:39:37.695Z,14.20
2019-05-16T21:42:07.600Z,14.20
2019-05-16T21:44:37.668Z,14.20
2019-05-16T21:47:07.097Z,14.20
2019-05-16T21:49:37.144Z,14.20
2019-05-16T21:52:06.746Z,14.20
2019-05-16T21:54:36.739Z,14.20
2019-05-16T21:57:06.591Z,14.20
2019-05-16T21:59:37.538Z,14.20
2019-05-16T22:02:07.063Z,14.20
2019-05-16T22:04:36.817Z,14.20
2019-05-16T22:07:07.252Z,14.30
2019-05-16T22:09:37.209Z,14.30
2019-05-16T22:12:06.931Z,14.20
2019-05-16T22:14:43.364Z,14.30
2019-05-16T22:17:12.799Z,14.20
2019-05-16T22:19:42.364Z,14.30
2019-05-16T22:22:11.811Z,14.30
2019-05-16T22:24:41.257Z,14.30
2019-05-16T22:27:10.606Z,14.30
2019-05-16T22:29:40.072Z,14.30
2019-05-16T22:32:09.482Z,14.30
2019-05-16T22:34:38.954Z,14.30
2019-05-16T22:37:08.320Z,14.40
2019-05-16T22:39:37.994Z,14.30
2019-05-16T22:42:09.288Z,14.30
2019-05-16T22:44:38.599Z,14.30
2019-05-16T22:47:08.083Z,14.30
2019-05-16T22:49:37.533Z,14.40
2019-05-16T22:52:06.903Z,14.40
2019-05-16T22:54:37.023Z,14.40
2019-05-16T22:57:06.908Z,14.40
2019-05-16T22:59:36.554Z,14.40
2019-05-16T23:02:11.671Z,14.40
2019-05-16T23:04:38.993Z,14.40
2019-05-16T23:07:08.808Z,14.40
2019-05-16T23:09:38.227Z,14.40
2019-05-16T23:12:07.674Z,14.40
2019-05-16T23:14:37.162Z,14.40
2019-05-16T23:17:06.983Z,14.40
2019-05-16T23:19:36.837Z,14.40
2019-05-16T23:22:07.694Z,14.40
2019-05-16T23:24:37.253Z,14.40
2019-05-16T23:27:07.084Z,14.40
2019-05-16T23:29:36.906Z,14.40
2019-05-16T23:32:07.413Z,14.40
2019-05-16T23:34:37.473Z,14.50
2019-05-16T23:37:07.014Z,14.50
2019-05-16T23:39:37.875Z,14.50
2019-05-16T23:42:07.542Z,14.50
2019-05-16T23:44:37.009Z,14.50
2019-05-16T23:47:07.101Z,14.40
2019-05-16T23:49:36.891Z,14.40
2019-05-16T23:52:07.490Z,14.50
2019-05-16T23:54:37.284Z,14.40
2019-05-16T23:57:06.836Z,14.40
2019-05-16T23:59:37.010Z,14.40
